Time;durP1;ratioP1;P1;durP2;ratioP2;P2;SDS_P1;SDS_P2;PMS_P1;PMS_P2;Temp;Humidity;BMP_temperature;BMP_pressure;BME280_temperature;BME280_humidity;BME280_pressure;Samples;Min_cycle;Max_cycle;Signal;HPM_P1;HPM_P2
2023/10/09 00:01:17;;;;;;;14.83;7.30;;;18.00;99.90;;;;;;7290766;19;20197;-88
2023/10/09 00:03:53;;;;;;;17.90;7.53;;;18.00;99.90;;;;;;7286323;19;20651;-88
2023/10/09 00:06:54;;;;;;;15.50;7.47;;;17.90;99.90;;;;;;7276928;19;20188;-88
2023/10/09 00:11:56;;;;;;;16.63;7.80;;;18.00;99.90;;;;;;7296132;19;20192;-89
2023/10/09 00:14:30;;;;;;;16.37;7.37;;;18.00;99.90;;;;;;7287999;19;20185;-89
2023/10/09 00:19:38;;;;;;;16.83;8.13;;;18.10;99.90;;;;;;7287088;19;20192;-89
2023/10/09 00:22:43;;;;;;;14.53;8.37;;;18.00;99.90;;;;;;7287520;19;20197;-89
2023/10/09 00:25:10;;;;;;;16.20;7.77;;;18.10;99.90;;;;;;7284920;19;20188;-89
2023/10/09 00:27:43;;;;;;;17.43;8.00;;;18.20;99.90;;;;;;7285267;19;20714;-89
2023/10/09 00:30:18;;;;;;;14.83;7.70;;;18.20;99.90;;;;;;7288040;19;20516;-88
2023/10/09 00:38:24;;;;;;;14.90;7.67;;;18.10;99.90;;;;;;7184839;19;2004406;-88
2023/10/09 00:41:04;;;;;;;17.40;8.10;;;18.10;99.90;;;;;;7285142;19;20180;-88
2023/10/09 00:43:31;;;;;;;17.33;7.80;;;18.10;99.90;;;;;;7269090;19;20260;-88
2023/10/09 00:46:03;;;;;;;18.10;8.20;;;18.20;99.90;;;;;;7301923;19;20544;-88
2023/10/09 00:48:31;;;;;;;17.10;8.00;;;18.20;99.90;;;;;;7293145;19;20189;-88
2023/10/09 00:51:00;;;;;;;15.67;7.50;;;18.20;99.90;;;;;;7308236;19;20185;-88
2023/10/09 00:53:33;;;;;;;17.60;8.23;;;18.20;99.90;;;;;;7312345;19;20192;-88
2023/10/09 00:58:49;;;;;;;15.43;7.50;;;18.10;99.90;;;;;;7291354;19;20209;-88
2023/10/09 01:01:16;;;;;;;13.10;7.37;;;18.20;99.90;;;;;;7290539;19;20185;-88
2023/10/09 01:03:44;;;;;;;18.37;8.20;;;18.20;99.90;;;;;;7292335;19;20195;-88
2023/10/09 01:11:09;;;;;;;18.23;8.90;;;18.20;99.90;;;;;;7292722;19;20199;-88
2023/10/09 01:14:00;;;;;;;17.17;8.80;;;18.30;99.90;;;;;;7291216;19;20185;-87
2023/10/09 01:16:25;;;;;;;19.50;8.70;;;18.20;99.90;;;;;;7292249;19;20188;-88
2023/10/09 01:18:56;;;;;;;16.47;8.57;;;18.20;99.90;;;;;;7293596;19;20278;-88
2023/10/09 01:21:32;;;;;;;17.90;8.13;;;18.10;99.90;;;;;;7290427;19;20206;-88
2023/10/09 01:26:47;;;;;;;18.53;8.93;;;18.10;99.90;;;;;;7300219;19;20189;-88
2023/10/09 01:29:17;;;;;;;16.60;8.93;;;18.10;99.90;;;;;;7290968;19;20273;-87
2023/10/09 01:32:06;;;;;;;18.13;8.53;;;18.10;99.90;;;;;;7291872;19;20228;-88
2023/10/09 01:37:11;;;;;;;17.17;9.03;;;18.00;99.90;;;;;;7291038;19;20189;-87
2023/10/09 01:39:42;;;;;;;17.63;8.80;;;18.00;99.90;;;;;;7290660;19;20193;-88
2023/10/09 01:42:09;;;;;;;19.60;8.83;;;18.10;99.90;;;;;;7292334;19;20187;-87
2023/10/09 01:44:38;;;;;;;19.43;8.53;;;18.10;99.90;;;;;;7291299;19;20196;-87
2023/10/09 01:47:08;;;;;;;17.43;9.13;;;18.10;99.90;;;;;;7280396;19;20188;-87
2023/10/09 01:49:37;;;;;;;15.97;8.83;;;18.10;99.90;;;;;;7290606;19;20544;-88
2023/10/09 01:52:08;;;;;;;20.10;9.27;;;18.00;99.90;;;;;;7290697;19;20192;-88
2023/10/09 01:54:40;;;;;;;20.37;10.13;;;18.10;99.90;;;;;;7270326;19;20196;-88
2023/10/09 01:57:11;;;;;;;20.73;9.43;;;18.10;99.90;;;;;;7291370;19;20227;-88
2023/10/09 01:59:44;;;;;;;19.30;10.10;;;18.20;99.90;;;;;;7290624;19;20206;-88
2023/10/09 02:08:05;;;;;;;21.80;10.43;;;18.00;99.90;;;;;;7086488;19;2004461;-88
2023/10/09 02:10:31;;;;;;;19.60;9.70;;;18.00;99.90;;;;;;7291695;19;20223;-88
2023/10/09 02:13:10;;;;;;;19.80;10.00;;;17.90;99.90;;;;;;7303873;19;20184;-88
2023/10/09 02:20:55;;;;;;;21.90;10.47;;;17.80;99.90;;;;;;7292022;19;20196;-90
2023/10/09 02:23:25;;;;;;;19.50;9.30;;;17.90;99.90;;;;;;7291363;19;20196;-89
2023/10/09 02:25:56;;;;;;;19.60;9.73;;;17.90;99.90;;;;;;7294745;19;20218;-89
2023/10/09 02:28:22;;;;;;;19.87;9.33;;;17.80;99.90;;;;;;7291525;19;20278;-88
2023/10/09 02:30:48;;;;;;;17.93;9.73;;;17.80;99.90;;;;;;7290510;19;20186;-88
2023/10/09 02:33:30;;;;;;;19.87;9.87;;;17.80;99.90;;;;;;7289893;19;20257;-88
2023/10/09 02:35:59;;;;;;;18.43;10.30;;;17.90;99.90;;;;;;7289224;19;20189;-89
2023/10/09 02:38:26;;;;;;;19.23;10.30;;;17.90;99.90;;;;;;7274306;19;20189;-88
2023/10/09 02:43:55;;;;;;;18.20;9.50;;;17.90;99.90;;;;;;7268305;19;20655;-88
2023/10/09 02:46:31;;;;;;;17.03;8.70;;;17.80;99.90;;;;;;7290776;19;20210;-88
2023/10/09 02:49:03;;;;;;;19.23;9.73;;;17.80;99.90;;;;;;7288322;19;20205;-88
2023/10/09 02:51:32;;;;;;;22.77;10.37;;;17.80;99.90;;;;;;7266301;19;20305;-88
2023/10/09 02:54:18;;;;;;;22.57;10.07;;;17.90;99.90;;;;;;7295945;19;20185;-88
2023/10/09 02:56:54;;;;;;;19.77;9.00;;;17.90;99.90;;;;;;7289002;19;20222;-88
2023/10/09 02:59:21;;;;;;;17.23;8.73;;;17.90;99.90;;;;;;7287618;19;20187;-88
2023/10/09 03:01:48;;;;;;;18.50;9.83;;;17.80;99.90;;;;;;7288752;19;20337;-88
2023/10/09 03:04:14;;;;;;;18.57;10.30;;;17.80;99.90;;;;;;7275865;19;20184;-88
2023/10/09 03:06:49;;;;;;;19.00;9.87;;;17.80;99.90;;;;;;7289333;19;20191;-88
2023/10/09 03:09:26;;;;;;;17.27;9.07;;;17.70;99.90;;;;;;7288990;19;20639;-89
2023/10/09 03:11:54;;;;;;;19.27;9.97;;;17.70;99.90;;;;;;7291073;19;20271;-88
2023/10/09 03:14:21;;;;;;;21.67;10.33;;;17.60;99.90;;;;;;7289249;19;20677;-88
2023/10/09 03:16:49;;;;;;;20.93;9.80;;;17.70;99.90;;;;;;7288906;19;21264;-87
2023/10/09 03:19:16;;;;;;;18.17;9.77;;;17.70;99.90;;;;;;7290397;19;20192;-88
2023/10/09 03:21:46;;;;;;;20.23;9.37;;;17.60;99.90;;;;;;7291147;19;20196;-88
2023/10/09 03:24:12;;;;;;;19.53;9.97;;;17.60;99.90;;;;;;7289444;19;20220;-86
2023/10/09 03:26:38;;;;;;;20.43;10.20;;;17.60;99.90;;;;;;7289387;19;20639;-89
2023/10/09 03:29:10;;;;;;;18.40;9.83;;;17.50;99.90;;;;;;7288588;19;20208;-88
2023/10/09 03:31:36;;;;;;;20.70;10.33;;;17.60;99.90;;;;;;7292325;19;20195;-88
2023/10/09 03:34:08;;;;;;;19.73;10.37;;;17.60;99.90;;;;;;7288960;19;20189;-88
2023/10/09 03:36:38;;;;;;;16.73;9.50;;;17.60;99.90;;;;;;7289688;19;20196;-88
2023/10/09 03:39:18;;;;;;;20.90;10.13;;;17.50;99.90;;;;;;7243576;19;20212;-89
2023/10/09 03:41:47;;;;;;;21.40;9.93;;;17.40;99.90;;;;;;7290330;19;20193;-88
2023/10/09 03:44:18;;;;;;;21.60;10.03;;;17.40;99.90;;;;;;7288181;19;20181;-88
2023/10/09 03:46:45;;;;;;;21.43;10.43;;;17.40;99.90;;;;;;7289184;19;20244;-88
2023/10/09 03:49:13;;;;;;;19.67;9.77;;;17.30;99.90;;;;;;7287246;19;20188;-88
2023/10/09 03:51:39;;;;;;;17.77;9.80;;;17.40;99.90;;;;;;7290624;19;20193;-89
2023/10/09 03:54:09;;;;;;;20.50;10.17;;;17.40;99.90;;;;;;7288237;19;20184;-89
2023/10/09 03:56:35;;;;;;;20.27;10.27;;;17.40;99.90;;;;;;7287593;19;20751;-89
2023/10/09 03:59:03;;;;;;;20.23;9.80;;;17.40;99.90;;;;;;7287961;19;20195;-89
2023/10/09 04:01:29;;;;;;;21.30;10.77;;;17.40;99.90;;;;;;7290551;19;20189;-88
2023/10/09 04:03:59;;;;;;;20.93;10.53;;;17.40;99.90;;;;;;7309668;19;20200;-89
2023/10/09 04:06:32;;;;;;;20.97;10.60;;;17.30;99.90;;;;;;7289706;19;20197;-89
2023/10/09 04:11:46;;;;;;;20.37;10.73;;;17.10;99.90;;;;;;7290886;19;20213;-89
2023/10/09 04:14:26;;;;;;;18.23;10.47;;;17.10;99.90;;;;;;7291758;19;20188;-89
2023/10/09 04:17:02;;;;;;;21.57;10.23;;;17.10;99.90;;;;;;7291953;19;20312;-90
2023/10/09 04:19:28;;;;;;;21.20;10.50;;;17.10;99.90;;;;;;7284678;19;20240;-89
2023/10/09 04:21:55;;;;;;;21.60;10.77;;;17.10;99.90;;;;;;7313052;19;20644;-89
2023/10/09 04:26:47;;;;;;;23.53;10.90;;;17.20;99.90;;;;;;7300312;19;25732;-88
2023/10/09 04:29:37;;;;;;;19.70;10.60;;;17.20;99.90;;;;;;7298289;19;20189;-89
2023/10/09 04:32:07;;;;;;;22.53;10.93;;;17.30;99.90;;;;;;7183294;19;2004594;-89
2023/10/09 04:34:48;;;;;;;20.60;10.37;;;17.30;99.90;;;;;;7297318;19;20193;-89
2023/10/09 04:39:47;;;;;;;23.03;10.40;;;17.20;99.90;;;;;;7303139;19;20197;-89
2023/10/09 04:47:36;;;;;;;20.50;10.50;;;17.20;99.90;;;;;;7316923;19;20188;-89
2023/10/09 04:55:16;;;;;;;21.27;10.73;;;17.20;99.90;;;;;;7340655;19;20188;-89
2023/10/09 04:57:46;;;;;;;20.33;10.60;;;17.20;99.90;;;;;;7323029;19;20237;-89
2023/10/09 05:03:09;;;;;;;22.17;10.33;;;17.10;99.90;;;;;;7302436;19;20188;-90
2023/10/09 05:08:21;;;;;;;18.93;10.33;;;17.20;99.90;;;;;;7324065;19;20189;-88
2023/10/09 05:16:25;;;;;;;20.50;10.43;;;17.30;99.90;;;;;;7313167;19;20285;-89
2023/10/09 05:19:05;;;;;;;23.27;11.10;;;17.20;99.90;;;;;;7309624;19;20232;-90
2023/10/09 05:24:19;;;;;;;21.43;10.33;;;17.30;99.90;;;;;;7312516;19;20253;-89
2023/10/09 05:29:19;;;;;;;20.07;10.67;;;17.30;99.90;;;;;;7300984;19;20193;-90
2023/10/09 05:35:04;;;;;;;23.57;10.83;;;17.30;99.90;;;;;;7193404;19;2004463;-90
2023/10/09 05:37:25;;;;;;;24.63;10.77;;;17.20;99.90;;;;;;7295761;19;20200;-89
2023/10/09 05:48:07;;;;;;;20.90;10.27;;;17.20;99.90;;;;;;7296878;19;20188;-90
2023/10/09 05:50:37;;;;;;;25.17;11.47;;;17.10;99.90;;;;;;7191060;19;2004827;-90
2023/10/09 06:03:53;;;;;;;27.93;12.20;;;16.90;99.90;;;;;;7294691;19;20237;-91
2023/10/09 06:06:42;;;;;;;24.83;12.50;;;16.90;99.90;;;;;;7292731;19;20190;-90
2023/10/09 06:19:48;;;;;;;28.40;13.23;;;17.10;99.90;;;;;;7292410;19;20208;-91
2023/10/09 06:25:08;;;;;;;22.67;13.17;;;17.20;99.90;;;;;;7273241;19;20192;-91
2023/10/09 06:30:14;;;;;;;24.63;12.60;;;17.20;99.90;;;;;;7290857;19;20210;-90
2023/10/09 06:35:33;;;;;;;25.30;12.57;;;17.20;99.90;;;;;;7290731;19;20214;-91
2023/10/09 06:43:17;;;;;;;24.90;12.93;;;17.30;99.90;;;;;;7285282;19;20251;-78
2023/10/09 06:45:44;;;;;;;25.17;13.27;;;17.40;99.90;;;;;;7286434;19;20225;-78
2023/10/09 06:51:15;;;;;;;25.80;13.63;;;17.30;99.90;;;;;;7285867;19;20197;-78
2023/10/09 06:53:58;;;;;;;25.27;14.07;;;17.30;99.90;;;;;;7183215;19;2006185;-78
2023/10/09 06:57:13;;;;;;;23.83;12.43;;;17.30;99.90;;;;;;7286672;19;20596;-77
2023/10/09 06:59:21;;;;;;;26.40;13.40;;;17.30;99.90;;;;;;7182727;19;2004573;-78
2023/10/09 07:06:59;;;;;;;27.47;13.83;;;17.50;99.90;;;;;;7290809;19;20212;-75
2023/10/09 07:09:42;;;;;;;25.73;12.33;;;17.60;99.90;;;;;;7302808;19;20227;-77
2023/10/09 07:12:25;;;;;;;23.87;12.90;;;17.80;99.90;;;;;;7180649;19;2004860;-76
2023/10/09 07:15:01;;;;;;;22.37;12.03;;;18.00;99.90;;;;;;7283945;19;20189;-76
2023/10/09 07:17:45;;;;;;;30.00;13.80;;;18.20;99.90;;;;;;7284765;19;20184;-76
2023/10/09 07:23:13;;;;;;;26.90;12.73;;;18.40;99.90;;;;;;7284394;19;20189;-75
2023/10/09 07:25:58;;;;;;;24.90;12.87;;;18.50;99.90;;;;;;7181897;19;2004704;-76
2023/10/09 07:29:01;;;;;;;27.83;14.20;;;18.50;99.90;;;;;;7284336;19;20196;-76
2023/10/09 07:31:39;;;;;;;26.10;13.60;;;18.50;99.90;;;;;;7179506;19;2006632;-76
2023/10/09 07:34:07;;;;;;;22.47;13.13;;;18.40;99.90;;;;;;7181448;19;2004603;-76
2023/10/09 07:36:34;;;;;;;25.90;14.33;;;18.40;99.90;;;;;;7282424;19;20189;-76
2023/10/09 07:39:12;;;;;;;25.53;13.57;;;18.30;99.90;;;;;;7282170;19;20203;-76
2023/10/09 07:41:44;;;;;;;26.27;13.23;;;18.30;99.90;;;;;;7282707;19;20209;-76
2023/10/09 07:44:19;;;;;;;27.60;13.87;;;18.30;99.90;;;;;;7279876;19;20207;-76
2023/10/09 07:47:13;;;;;;;26.60;13.33;;;18.40;99.90;;;;;;7281217;19;20200;-76
2023/10/09 07:49:40;;;;;;;21.37;12.67;;;18.60;99.90;;;;;;7179623;19;2006197;-76
2023/10/09 07:52:06;;;;;;;26.10;13.03;;;18.80;99.90;;;;;;7280394;19;20189;-76
2023/10/09 07:54:32;;;;;;;24.07;13.00;;;19.10;99.90;;;;;;7282313;19;20185;-76
2023/10/09 07:57:15;;;;;;;21.80;12.50;;;19.50;99.90;;;;;;7304162;19;20189;-76
2023/10/09 07:59:54;;;;;;;27.93;13.37;;;19.90;99.90;;;;;;7180319;19;2004430;-76
2023/10/09 08:02:32;;;;;;;24.27;12.90;;;20.10;99.90;;;;;;7280899;19;20330;-76
2023/10/09 08:05:06;;;;;;;22.07;12.80;;;20.50;99.90;;;;;;7282540;19;20189;-75
2023/10/09 08:07:36;;;;;;;23.03;12.37;;;20.80;99.90;;;;;;7258635;19;20206;-75
2023/10/09 08:17:58;;;;;;;23.70;12.60;;;20.90;99.90;;;;;;7282553;19;20648;-76
2023/10/09 08:20:26;;;;;;;25.03;12.53;;;20.70;99.90;;;;;;7283628;19;20182;-75
2023/10/09 08:22:55;;;;;;;24.77;13.10;;;20.70;99.90;;;;;;7282349;19;20186;-76
2023/10/09 08:25:27;;;;;;;23.50;12.90;;;20.70;99.90;;;;;;7282236;19;20278;-76
2023/10/09 08:27:55;;;;;;;24.67;13.40;;;20.70;99.90;;;;;;7282438;19;20590;-76
2023/10/09 08:33:35;;;;;;;23.30;13.37;;;20.70;99.90;;;;;;7281036;19;20187;-76
2023/10/09 08:35:51;;;;;;;22.50;12.23;;;20.70;99.90;;;;;;7179776;19;2004501;-76
2023/10/09 08:38:26;;;;;;;23.13;13.53;;;20.80;99.90;;;;;;7279451;19;20194;-77
2023/10/09 08:40:58;;;;;;;23.73;13.07;;;20.80;99.90;;;;;;7282604;19;20345;-76
2023/10/09 08:43:24;;;;;;;21.30;12.80;;;20.80;99.90;;;;;;7280903;19;20191;-76
2023/10/09 08:46:00;;;;;;;23.60;12.80;;;20.90;99.90;;;;;;7282570;19;20191;-76
2023/10/09 08:48:27;;;;;;;22.33;11.80;;;21.10;99.90;;;;;;7281932;19;20190;-76
2023/10/09 08:50:56;;;;;;;23.10;12.60;;;21.20;99.90;;;;;;7280997;19;20219;-76
2023/10/09 08:53:24;;;;;;;28.33;13.67;;;21.30;99.90;;;;;;7281500;19;20186;-76
2023/10/09 08:55:51;;;;;;;23.37;13.10;;;21.40;99.90;;;;;;7280602;19;20264;-77
2023/10/09 08:58:24;;;;;;;24.20;12.83;;;21.30;99.90;;;;;;7280193;19;20189;-76
2023/10/09 09:00:51;;;;;;;26.00;14.03;;;21.30;99.90;;;;;;7281492;19;20184;-76
2023/10/09 09:03:22;;;;;;;28.60;12.67;;;21.30;99.90;;;;;;7281924;19;20580;-76
2023/10/09 09:06:03;;;;;;;24.50;13.40;;;21.30;99.90;;;;;;7289013;19;20759;-75
2023/10/09 09:08:31;;;;;;;22.80;12.90;;;21.50;99.90;;;;;;7277190;19;20939;-75
2023/10/09 09:11:11;;;;;;;21.63;12.63;;;21.30;99.90;;;;;;7309452;19;20185;-76
2023/10/09 09:13:41;;;;;;;23.10;13.27;;;21.40;99.90;;;;;;7185170;19;2004735;-76
2023/10/09 09:16:18;;;;;;;24.10;13.60;;;21.30;99.90;;;;;;7287458;19;20852;-76
2023/10/09 09:19:04;;;;;;;21.77;12.60;;;21.20;99.90;;;;;;7286729;19;20191;-76
2023/10/09 09:21:44;;;;;;;22.80;13.30;;;21.40;99.90;;;;;;7265841;19;20184;-76
2023/10/09 09:24:26;;;;;;;25.03;13.40;;;21.50;99.90;;;;;;7286588;19;20198;-76
2023/10/09 09:27:00;;;;;;;24.17;13.30;;;21.60;99.90;;;;;;7288051;19;20195;-76
2023/10/09 09:29:38;;;;;;;23.60;12.57;;;21.70;99.90;;;;;;7286590;19;20198;-76
2023/10/09 09:32:21;;;;;;;25.60;12.87;;;21.90;99.90;;;;;;7184458;19;2004555;-76
2023/10/09 09:34:55;;;;;;;24.57;13.60;;;22.10;99.90;;;;;;7285488;19;20207;-75
2023/10/09 09:37:32;;;;;;;23.77;12.70;;;22.30;99.90;;;;;;7285398;19;20207;-76
2023/10/09 09:40:14;;;;;;;22.67;12.57;;;22.40;99.90;;;;;;7284749;19;20573;-75
2023/10/09 09:42:48;;;;;;;24.77;13.17;;;22.40;99.90;;;;;;7286371;19;20196;-76
2023/10/09 09:45:16;;;;;;;20.50;11.73;;;22.50;99.90;;;;;;7287365;19;20260;-76
2023/10/09 09:47:51;;;;;;;22.77;12.47;;;22.50;99.90;;;;;;7286020;19;20184;-75
2023/10/09 09:50:29;;;;;;;22.73;12.63;;;22.70;99.90;;;;;;7287079;19;20219;-76
2023/10/09 09:52:56;;;;;;;22.80;12.50;;;22.80;99.90;;;;;;7288114;19;20663;-75
2023/10/09 09:55:33;;;;;;;20.20;11.83;;;22.70;99.90;;;;;;7286702;19;20553;-76
2023/10/09 09:57:58;;;;;;;25.23;12.37;;;22.90;99.90;;;;;;7284621;19;20365;-75
2023/10/09 10:00:42;;;;;;;23.53;12.07;;;22.90;99.90;;;;;;7296550;19;20217;-76
2023/10/09 10:03:36;;;;;;;21.37;12.47;;;22.90;99.90;;;;;;7182765;19;2004616;-75
2023/10/09 10:06:09;;;;;;;26.07;12.60;;;23.00;99.90;;;;;;7263048;19;20306;-76
2023/10/09 10:08:39;;;;;;;23.23;12.53;;;23.10;99.90;;;;;;7282312;19;20249;-76
2023/10/09 10:11:05;;;;;;;23.47;12.47;;;23.20;99.90;;;;;;7282066;19;20643;-76
2023/10/09 10:13:47;;;;;;;22.60;12.43;;;23.30;99.90;;;;;;7285352;19;20191;-75
2023/10/09 10:16:20;;;;;;;26.77;13.10;;;23.30;99.90;;;;;;7283227;19;20659;-76
2023/10/09 10:19:21;;;;;;;19.80;11.90;;;23.40;99.90;;;;;;7283295;19;20185;-76
2023/10/09 10:22:01;;;;;;;21.53;12.47;;;23.40;99.90;;;;;;7182927;19;2004581;-75
2023/10/09 10:24:51;;;;;;;28.17;13.37;;;23.40;99.90;;;;;;7285507;19;20184;-76
2023/10/09 10:27:26;;;;;;;24.43;13.37;;;23.60;99.90;;;;;;7183690;19;2005020;-76
2023/10/09 10:30:13;;;;;;;23.00;12.97;;;23.70;99.90;;;;;;7284876;19;20280;-75
2023/10/09 10:32:51;;;;;;;23.70;12.90;;;23.70;99.90;;;;;;7183514;19;2004620;-75
2023/10/09 10:35:32;;;;;;;21.23;12.90;;;23.90;99.90;;;;;;7285351;19;20188;-76
2023/10/09 10:40:40;;;;;;;20.20;11.97;;;24.80;99.90;;;;;;7262198;19;20695;-75
2023/10/09 10:43:31;;;;;;;19.43;11.30;;;25.10;99.90;;;;;;7284672;19;20195;-76
2023/10/09 10:48:59;;;;;;;18.43;11.67;;;25.10;99.90;;;;;;7181794;19;2004479;-75
2023/10/09 10:51:37;;;;;;;22.08;10.88;;;25.20;99.90;;;;;;7285459;19;20204;-76
2023/10/09 10:54:28;;;;;;;20.15;11.25;;;25.50;99.90;;;;;;7262037;19;20256;-76
2023/10/09 10:56:51;;;;;;;18.83;11.48;;;25.80;99.90;;;;;;7283990;19;20702;-75
2023/10/09 10:59:25;;;;;;;22.48;11.50;;;25.90;99.90;;;;;;7284266;19;20185;-76
2023/10/09 11:04:44;;;;;;;21.15;11.45;;;26.00;99.90;;;;;;7284416;19;20188;-76
2023/10/09 11:07:16;;;;;;;19.95;10.75;;;25.70;99.90;;;;;;7183049;19;2004967;-77
2023/10/09 11:12:37;;;;;;;19.10;10.25;;;25.60;99.90;;;;;;7283736;19;20225;-76
2023/10/09 11:18:07;;;;;;;20.98;10.18;;;25.70;99.90;;;;;;7277651;19;20219;-77
2023/10/09 11:20:35;;;;;;;18.80;9.77;;;25.70;99.90;;;;;;7263336;19;20188;-77
2023/10/09 11:25:50;;;;;;;20.17;10.32;;;25.80;99.90;;;;;;7284174;19;20219;-77
2023/10/09 11:31:16;;;;;;;17.20;10.48;;;25.70;99.90;;;;;;7181341;19;2004969;-76
2023/10/09 11:33:48;;;;;;;19.92;10.13;;;25.60;99.90;;;;;;7285215;19;20216;-76
2023/10/09 11:36:14;;;;;;;17.50;9.82;;;25.50;99.90;;;;;;7282117;19;20181;-77
2023/10/09 11:38:45;;;;;;;18.33;10.53;;;25.60;99.90;;;;;;7280128;19;20210;-77
2023/10/09 11:41:24;;;;;;;20.45;10.13;;;25.60;99.90;;;;;;7282140;19;20204;-77
2023/10/09 11:43:54;;;;;;;23.20;10.67;;;25.70;99.90;;;;;;7281582;19;20304;-76
2023/10/09 11:46:48;;;;;;;19.20;11.32;;;25.70;99.90;;;;;;7283266;19;20181;-77
2023/10/09 11:49:44;;;;;;;22.70;11.10;;;25.50;99.90;;;;;;7179930;19;2005035;-77
2023/10/09 11:52:35;;;;;;;18.38;10.38;;;25.40;99.90;;;;;;7270970;19;20185;-76
2023/10/09 11:54:56;;;;;;;21.08;10.32;;;25.50;99.90;;;;;;7281555;19;20184;-75
2023/10/09 11:57:30;;;;;;;17.85;9.57;;;25.50;99.90;;;;;;7277499;19;20733;-75
2023/10/09 12:00:00;;;;;;;19.67;9.82;;;25.70;99.90;;;;;;7280158;19;20191;-75
2023/10/09 12:02:26;;;;;;;18.80;9.88;;;25.90;99.90;;;;;;7282706;19;20197;-75
2023/10/09 12:04:55;;;;;;;20.13;9.25;;;26.20;99.90;;;;;;7280596;19;20177;-75
2023/10/09 12:07:23;;;;;;;17.98;8.40;;;26.40;99.90;;;;;;7282964;19;20720;-75
2023/10/09 12:09:51;;;;;;;18.85;8.85;;;26.40;99.90;;;;;;7279375;19;20198;-76
2023/10/09 12:12:18;;;;;;;16.58;8.85;;;26.50;99.90;;;;;;7280073;19;20221;-75
2023/10/09 12:14:44;;;;;;;20.83;8.50;;;26.50;99.90;;;;;;7281090;19;20193;-75
2023/10/09 12:17:10;;;;;;;16.67;8.30;;;26.60;99.90;;;;;;7280919;19;20551;-75
2023/10/09 12:19:38;;;;;;;15.52;8.68;;;26.60;99.90;;;;;;7280928;19;21070;-75
2023/10/09 12:22:06;;;;;;;16.90;8.15;;;26.80;99.90;;;;;;7282163;19;20199;-76
2023/10/09 12:24:33;;;;;;;15.18;7.60;;;27.00;99.90;;;;;;7281034;19;20185;-76
2023/10/09 12:26:59;;;;;;;15.70;7.70;;;27.10;99.90;;;;;;7299782;19;20941;-76
2023/10/09 12:29:30;;;;;;;18.13;8.60;;;27.00;99.90;;;;;;7280546;19;20256;-76
2023/10/09 12:31:59;;;;;;;15.02;8.32;;;26.70;99.90;;;;;;7282400;19;20189;-76
2023/10/09 12:34:28;;;;;;;16.50;8.23;;;26.60;99.90;;;;;;7281549;19;20217;-75
2023/10/09 12:36:54;;;;;;;16.35;8.65;;;26.60;99.90;;;;;;7280453;19;20197;-76
2023/10/09 12:39:21;;;;;;;17.05;7.88;;;26.60;99.90;;;;;;7284280;19;20182;-76
2023/10/09 12:41:48;;;;;;;18.10;7.93;;;26.60;99.90;;;;;;7286829;19;20256;-76
2023/10/09 12:44:14;;;;;;;18.48;8.35;;;26.80;99.90;;;;;;7286896;19;20188;-76
2023/10/09 12:46:51;;;;;;;15.85;7.63;;;26.80;99.90;;;;;;7287199;19;20213;-75
2023/10/09 12:49:19;;;;;;;17.70;8.43;;;26.80;99.90;;;;;;7287026;19;20678;-76
2023/10/09 12:51:46;;;;;;;17.08;8.20;;;26.60;99.90;;;;;;7288097;19;20185;-76
2023/10/09 12:54:14;;;;;;;16.08;8.20;;;26.60;99.90;;;;;;7287838;19;20188;-76
2023/10/09 12:56:40;;;;;;;14.18;7.65;;;26.50;99.90;;;;;;7284664;19;20224;-76
2023/10/09 12:59:14;;;;;;;17.88;9.23;;;26.50;99.90;;;;;;7289770;19;20193;-76
2023/10/09 13:01:43;;;;;;;19.50;9.43;;;26.20;99.90;;;;;;7290278;19;20193;-76
2023/10/09 13:04:15;;;;;;;19.63;8.27;;;26.20;99.90;;;;;;7289733;19;20213;-75
2023/10/09 13:06:45;;;;;;;18.25;9.65;;;26.10;99.90;;;;;;7287994;19;20208;-76
2023/10/09 13:09:15;;;;;;;19.23;9.38;;;26.00;99.90;;;;;;7287125;19;20202;-76
2023/10/09 13:11:42;;;;;;;17.70;8.95;;;26.10;99.90;;;;;;7283225;19;20203;-77
2023/10/09 13:14:16;;;;;;;15.25;8.70;;;26.00;99.90;;;;;;7285915;19;20207;-76
2023/10/09 13:16:43;;;;;;;18.02;9.07;;;26.10;99.90;;;;;;7287212;19;20283;-76
2023/10/09 13:19:09;;;;;;;17.77;8.55;;;26.10;99.90;;;;;;7287643;19;20196;-76
2023/10/09 13:21:38;;;;;;;18.00;8.85;;;26.10;99.90;;;;;;7286289;19;20193;-76
2023/10/09 13:24:05;;;;;;;17.33;9.18;;;26.20;99.90;;;;;;7286685;19;20199;-76
2023/10/09 13:26:34;;;;;;;17.80;9.30;;;26.20;99.90;;;;;;7290447;19;20211;-77
2023/10/09 13:29:02;;;;;;;17.73;8.98;;;26.20;99.90;;;;;;7292386;19;20210;-76
2023/10/09 13:31:31;;;;;;;18.88;9.63;;;26.30;99.90;;;;;;7307632;19;20196;-77
2023/10/09 13:33:59;;;;;;;22.25;10.00;;;26.30;99.90;;;;;;7284353;19;20188;-77
2023/10/09 13:36:35;;;;;;;18.02;9.23;;;26.30;99.90;;;;;;7285987;19;20203;-77
2023/10/09 13:39:23;;;;;;;18.08;9.07;;;26.00;99.90;;;;;;7269261;19;20184;-77
2023/10/09 13:42:01;;;;;;;21.02;9.80;;;25.90;99.90;;;;;;7286331;19;20714;-77
2023/10/09 13:44:31;;;;;;;16.83;9.27;;;25.80;99.90;;;;;;7288686;19;20209;-76
2023/10/09 13:47:04;;;;;;;21.27;9.65;;;25.70;99.90;;;;;;7287884;19;20193;-76
2023/10/09 13:49:31;;;;;;;17.77;9.52;;;25.60;99.90;;;;;;7271847;19;20189;-78
2023/10/09 13:52:06;;;;;;;17.98;9.75;;;25.60;99.90;;;;;;7308856;19;20193;-77
2023/10/09 13:57:00;;;;;;;17.58;10.30;;;25.40;99.90;;;;;;7307699;19;20216;-77
2023/10/09 13:59:29;;;;;;;20.00;10.23;;;25.40;99.90;;;;;;7286531;19;20189;-76
2023/10/09 14:01:55;;;;;;;19.93;10.80;;;25.40;99.90;;;;;;7281717;19;20196;-77
2023/10/09 14:04:22;;;;;;;20.63;9.93;;;25.30;99.90;;;;;;7282276;19;20193;-77
2023/10/09 14:06:56;;;;;;;21.33;9.75;;;25.20;99.90;;;;;;7280709;19;20196;-76
2023/10/09 14:10:06;;;;;;;18.65;9.23;;;25.20;99.90;;;;;;7280281;19;20208;-76
2023/10/09 14:12:19;;;;;;;19.05;9.93;;;25.30;99.90;;;;;;7177689;19;2004584;-76
2023/10/09 14:14:48;;;;;;;19.67;10.48;;;25.30;99.90;;;;;;7280469;19;20193;-76
2023/10/09 14:17:19;;;;;;;20.20;11.18;;;25.30;99.90;;;;;;7282426;19;20200;-76
2023/10/09 14:19:47;;;;;;;22.00;10.73;;;25.20;99.90;;;;;;7284775;19;20189;-75
2023/10/09 14:22:15;;;;;;;19.77;10.68;;;24.80;99.90;;;;;;7283789;19;20650;-76
2023/10/09 14:24:46;;;;;;;18.05;10.35;;;24.70;99.90;;;;;;7282807;19;20185;-76
2023/10/09 14:27:18;;;;;;;18.30;10.23;;;24.60;99.90;;;;;;7284153;19;20702;-76
2023/10/09 14:29:47;;;;;;;22.30;10.17;;;24.70;99.90;;;;;;7281841;19;20532;-76
2023/10/09 14:32:14;;;;;;;22.23;10.00;;;24.70;99.90;;;;;;7283105;19;20200;-76
2023/10/09 14:34:50;;;;;;;19.63;10.60;;;24.70;99.90;;;;;;7282911;19;20200;-75
2023/10/09 14:37:19;;;;;;;22.10;10.40;;;24.70;99.90;;;;;;7282720;19;20200;-75
2023/10/09 14:39:48;;;;;;;20.93;9.60;;;24.80;99.90;;;;;;7282814;19;20186;-77
2023/10/09 14:42:17;;;;;;;19.48;10.32;;;24.80;99.90;;;;;;7280956;19;20221;-78
2023/10/09 14:44:45;;;;;;;18.60;10.17;;;24.80;99.90;;;;;;7283408;19;20192;-77
2023/10/09 14:47:11;;;;;;;20.10;9.77;;;24.80;99.90;;;;;;7283125;19;20184;-77
2023/10/09 14:49:43;;;;;;;20.63;10.30;;;24.70;99.90;;;;;;7283669;19;20281;-77
2023/10/09 14:52:10;;;;;;;19.35;10.20;;;24.70;99.90;;;;;;7283402;19;20289;-78
2023/10/09 14:54:38;;;;;;;18.83;9.73;;;24.60;99.90;;;;;;7284382;19;20185;-77
2023/10/09 14:57:07;;;;;;;19.80;9.97;;;24.50;99.90;;;;;;7284895;19;20688;-77
2023/10/09 14:59:33;;;;;;;18.47;9.77;;;24.40;99.90;;;;;;7283811;19;20212;-77
2023/10/09 15:02:00;;;;;;;22.70;10.20;;;24.30;99.90;;;;;;7301119;19;20203;-76
2023/10/09 15:04:26;;;;;;;20.93;10.17;;;24.40;99.90;;;;;;7283066;19;20188;-76
2023/10/09 15:06:52;;;;;;;17.13;9.10;;;24.40;99.90;;;;;;7281754;19;20671;-76
2023/10/09 15:09:22;;;;;;;17.00;9.00;;;24.40;99.90;;;;;;7283772;19;20244;-76
2023/10/09 15:11:51;;;;;;;20.60;9.73;;;24.40;99.90;;;;;;7282207;19;20706;-76
2023/10/09 15:14:21;;;;;;;22.00;10.47;;;24.50;99.90;;;;;;7282771;19;20200;-76
2023/10/09 15:16:47;;;;;;;21.00;10.23;;;24.60;99.90;;;;;;7281691;19;20185;-76
2023/10/09 15:19:16;;;;;;;118.30;75.93;;;24.60;99.90;;;;;;7281213;19;20205;-76
2023/10/09 15:21:45;;;;;;;22.37;10.77;;;24.60;99.90;;;;;;7281553;19;20743;-77
2023/10/09 15:24:15;;;;;;;23.80;10.87;;;24.60;99.90;;;;;;7278264;19;20223;-76
2023/10/09 15:26:53;;;;;;;59.13;37.33;;;24.50;99.90;;;;;;7281950;19;20192;-77
2023/10/09 15:29:23;;;;;;;21.87;12.73;;;24.40;99.90;;;;;;7283562;19;20188;-74
2023/10/09 15:31:51;;;;;;;23.95;12.00;;;24.40;99.90;;;;;;7282988;19;20189;-75
2023/10/09 15:34:18;;;;;;;23.63;12.30;;;24.40;99.90;;;;;;7284645;19;20187;-76
2023/10/09 15:36:46;;;;;;;21.98;11.23;;;24.30;99.90;;;;;;7284993;19;20601;-77